sensor_id;sensor_type;location;lat;lon;timestamp;P1;durP1;ratioP1;P2;durP2;ratioP2
673;SDS011;319;48.764;9.174;2023-07-29T00:02:17;2.60;;;2.60;;
673;SDS011;319;48.764;9.174;2023-07-29T00:04:44;2.50;;;2.50;;
673;SDS011;319;48.764;9.174;2023-07-29T00:07:14;2.53;;;2.53;;
673;SDS011;319;48.764;9.174;2023-07-29T00:09:41;2.60;;;2.60;;
673;SDS011;319;48.764;9.174;2023-07-29T00:12:08;2.90;;;2.80;;
673;SDS011;319;48.764;9.174;2023-07-29T00:14:36;3.20;;;3.10;;
673;SDS011;319;48.764;9.174;2023-07-29T00:17:03;3.00;;;2.90;;
673;SDS011;319;48.764;9.174;2023-07-29T00:19:30;3.17;;;3.07;;
673;SDS011;319;48.764;9.174;2023-07-29T00:21:59;2.53;;;2.53;;
673;SDS011;319;48.764;9.174;2023-07-29T00:24:25;2.90;;;2.80;;
673;SDS011;319;48.764;9.174;2023-07-29T00:26:52;3.00;;;2.90;;
673;SDS011;319;48.764;9.174;2023-07-29T00:29:19;3.10;;;3.00;;
673;SDS011;319;48.764;9.174;2023-07-29T00:31:48;3.20;;;3.10;;
673;SDS011;319;48.764;9.174;2023-07-29T00:34:15;3.20;;;3.10;;
673;SDS011;319;48.764;9.174;2023-07-29T00:36:44;3.30;;;3.20;;
673;SDS011;319;48.764;9.174;2023-07-29T00:39:11;3.20;;;3.10;;
673;SDS011;319;48.764;9.174;2023-07-29T00:41:38;3.50;;;3.40;;
673;SDS011;319;48.764;9.174;2023-07-29T00:44:05;4.40;;;4.30;;
673;SDS011;319;48.764;9.174;2023-07-29T00:46:33;4.10;;;4.00;;
673;SDS011;319;48.764;9.174;2023-07-29T00:49:02;3.33;;;3.23;;
673;SDS011;319;48.764;9.174;2023-07-29T00:51:29;3.00;;;2.90;;
673;SDS011;319;48.764;9.174;2023-07-29T00:53:56;1.33;;;1.33;;
673;SDS011;319;48.764;9.174;2023-07-29T00:56:23;1.00;;;1.00;;
673;SDS011;319;48.764;9.174;2023-07-29T00:58:50;1.00;;;1.00;;
673;SDS011;319;48.764;9.174;2023-07-29T01:01:23;1.10;;;1.10;;
673;SDS011;319;48.764;9.174;2023-07-29T01:03:50;1.00;;;1.00;;
673;SDS011;319;48.764;9.174;2023-07-29T01:06:21;1.00;;;1.00;;
673;SDS011;319;48.764;9.174;2023-07-29T01:08:56;1.10;;;1.10;;
673;SDS011;319;48.764;9.174;2023-07-29T01:11:33;1.10;;;1.10;;
673;SDS011;319;48.764;9.174;2023-07-29T01:14:09;1.00;;;1.00;;
673;SDS011;319;48.764;9.174;2023-07-29T01:16:44;1.00;;;1.00;;
673;SDS011;319;48.764;9.174;2023-07-29T01:19:20;1.00;;;1.00;;
673;SDS011;319;48.764;9.174;2023-07-29T01:22:02;0.93;;;0.93;;
673;SDS011;319;48.764;9.174;2023-07-29T01:24:31;1.00;;;1.00;;
673;SDS011;319;48.764;9.174;2023-07-29T01:26:58;1.03;;;1.03;;
673;SDS011;319;48.764;9.174;2023-07-29T01:29:29;1.00;;;1.00;;
673;SDS011;319;48.764;9.174;2023-07-29T01:31:56;1.00;;;1.00;;
673;SDS011;319;48.764;9.174;2023-07-29T01:34:28;0.97;;;0.97;;
673;SDS011;319;48.764;9.174;2023-07-29T01:36:59;1.00;;;1.00;;
673;SDS011;319;48.764;9.174;2023-07-29T01:39:29;1.00;;;1.00;;
673;SDS011;319;48.764;9.174;2023-07-29T01:42:05;1.00;;;1.00;;
673;SDS011;319;48.764;9.174;2023-07-29T01:44:43;0.90;;;0.90;;
673;SDS011;319;48.764;9.174;2023-07-29T01:47:10;1.00;;;1.00;;
673;SDS011;319;48.764;9.174;2023-07-29T01:49:37;1.00;;;1.00;;
673;SDS011;319;48.764;9.174;2023-07-29T01:52:05;0.90;;;0.90;;
673;SDS011;319;48.764;9.174;2023-07-29T01:54:33;0.90;;;0.90;;
673;SDS011;319;48.764;9.174;2023-07-29T01:57:00;0.97;;;0.97;;
673;SDS011;319;48.764;9.174;2023-07-29T01:59:27;1.00;;;1.00;;
673;SDS011;319;48.764;9.174;2023-07-29T02:01:54;1.00;;;1.00;;
673;SDS011;319;48.764;9.174;2023-07-29T02:04:21;0.90;;;0.90;;
673;SDS011;319;48.764;9.174;2023-07-29T02:06:48;1.00;;;1.00;;
673;SDS011;319;48.764;9.174;2023-07-29T02:09:14;1.00;;;1.00;;
673;SDS011;319;48.764;9.174;2023-07-29T02:11:43;1.00;;;1.00;;
673;SDS011;319;48.764;9.174;2023-07-29T02:14:09;1.00;;;1.00;;
673;SDS011;319;48.764;9.174;2023-07-29T02:16:36;1.00;;;1.00;;
673;SDS011;319;48.764;9.174;2023-07-29T02:19:04;0.90;;;0.90;;
673;SDS011;319;48.764;9.174;2023-07-29T02:21:31;0.90;;;0.90;;
673;SDS011;319;48.764;9.174;2023-07-29T02:23:58;1.00;;;1.00;;
673;SDS011;319;48.764;9.174;2023-07-29T02:26:24;0.90;;;0.90;;
673;SDS011;319;48.764;9.174;2023-07-29T02:28:53;0.90;;;0.90;;
673;SDS011;319;48.764;9.174;2023-07-29T02:31:20;1.10;;;1.10;;
673;SDS011;319;48.764;9.174;2023-07-29T02:33:48;0.90;;;0.90;;
673;SDS011;319;48.764;9.174;2023-07-29T02:36:16;0.90;;;0.90;;
673;SDS011;319;48.764;9.174;2023-07-29T02:38:43;0.90;;;0.90;;
673;SDS011;319;48.764;9.174;2023-07-29T02:41:10;0.97;;;0.97;;
673;SDS011;319;48.764;9.174;2023-07-29T02:43:38;1.00;;;1.00;;
673;SDS011;319;48.764;9.174;2023-07-29T02:46:07;1.00;;;1.00;;
673;SDS011;319;48.764;9.174;2023-07-29T02:48:34;1.00;;;1.00;;
673;SDS011;319;48.764;9.174;2023-07-29T02:51:01;1.00;;;1.00;;
673;SDS011;319;48.764;9.174;2023-07-29T02:53:28;1.00;;;1.00;;
673;SDS011;319;48.764;9.174;2023-07-29T02:55:55;0.90;;;0.90;;
673;SDS011;319;48.764;9.174;2023-07-29T02:58:22;1.00;;;1.00;;
673;SDS011;319;48.764;9.174;2023-07-29T03:00:48;0.90;;;0.90;;
673;SDS011;319;48.764;9.174;2023-07-29T03:03:17;0.90;;;0.90;;
673;SDS011;319;48.764;9.174;2023-07-29T03:05:45;1.00;;;1.00;;
673;SDS011;319;48.764;9.174;2023-07-29T03:08:11;0.90;;;0.90;;
673;SDS011;319;48.764;9.174;2023-07-29T03:10:38;1.00;;;1.00;;
673;SDS011;319;48.764;9.174;2023-07-29T03:13:07;0.90;;;0.90;;
673;SDS011;319;48.764;9.174;2023-07-29T03:15:33;1.00;;;1.00;;
673;SDS011;319;48.764;9.174;2023-07-29T03:18:00;1.00;;;1.00;;
673;SDS011;319;48.764;9.174;2023-07-29T03:20:35;1.00;;;1.00;;
673;SDS011;319;48.764;9.174;2023-07-29T03:23:08;0.90;;;0.90;;
673;SDS011;319;48.764;9.174;2023-07-29T03:25:35;0.90;;;0.90;;
673;SDS011;319;48.764;9.174;2023-07-29T03:28:02;0.97;;;0.97;;
673;SDS011;319;48.764;9.174;2023-07-29T03:30:29;1.03;;;1.03;;
673;SDS011;319;48.764;9.174;2023-07-29T03:32:56;1.00;;;1.00;;
673;SDS011;319;48.764;9.174;2023-07-29T03:35:23;0.90;;;0.90;;
673;SDS011;319;48.764;9.174;2023-07-29T03:37:51;1.00;;;1.00;;
673;SDS011;319;48.764;9.174;2023-07-29T03:40:18;1.00;;;1.00;;
673;SDS011;319;48.764;9.174;2023-07-29T03:42:45;1.00;;;1.00;;
673;SDS011;319;48.764;9.174;2023-07-29T03:45:12;1.00;;;1.00;;
673;SDS011;319;48.764;9.174;2023-07-29T03:47:39;1.00;;;1.00;;
673;SDS011;319;48.764;9.174;2023-07-29T03:50:06;1.00;;;1.00;;
673;SDS011;319;48.764;9.174;2023-07-29T03:52:34;0.90;;;0.90;;
673;SDS011;319;48.764;9.174;2023-07-29T03:55:02;0.90;;;0.90;;
673;SDS011;319;48.764;9.174;2023-07-29T03:57:30;0.90;;;0.90;;
673;SDS011;319;48.764;9.174;2023-07-29T03:59:56;1.40;;;1.40;;
673;SDS011;319;48.764;9.174;2023-07-29T04:02:23;1.00;;;1.00;;
673;SDS011;319;48.764;9.174;2023-07-29T04:04:50;0.97;;;0.97;;
673;SDS011;319;48.764;9.174;2023-07-29T04:07:17;1.00;;;1.00;;
673;SDS011;319;48.764;9.174;2023-07-29T04:09:44;1.03;;;1.03;;
673;SDS011;319;48.764;9.174;2023-07-29T04:12:12;1.00;;;1.00;;
673;SDS011;319;48.764;9.174;2023-07-29T04:14:39;1.10;;;1.10;;
673;SDS011;319;48.764;9.174;2023-07-29T04:17:09;1.10;;;1.10;;
673;SDS011;319;48.764;9.174;2023-07-29T04:19:36;1.00;;;1.00;;
673;SDS011;319;48.764;9.174;2023-07-29T04:22:03;1.10;;;1.10;;
673;SDS011;319;48.764;9.174;2023-07-29T04:24:30;1.00;;;1.00;;
673;SDS011;319;48.764;9.174;2023-07-29T04:26:57;1.07;;;1.07;;
673;SDS011;319;48.764;9.174;2023-07-29T04:29:25;1.00;;;1.00;;
673;SDS011;319;48.764;9.174;2023-07-29T04:31:52;1.10;;;1.10;;
673;SDS011;319;48.764;9.174;2023-07-29T04:34:19;1.03;;;1.03;;
673;SDS011;319;48.764;9.174;2023-07-29T04:36:47;1.00;;;1.00;;
673;SDS011;319;48.764;9.174;2023-07-29T04:39:14;1.00;;;1.00;;
673;SDS011;319;48.764;9.174;2023-07-29T04:41:41;1.10;;;1.10;;
673;SDS011;319;48.764;9.174;2023-07-29T04:44:08;1.00;;;1.00;;
673;SDS011;319;48.764;9.174;2023-07-29T04:46:37;1.07;;;1.07;;
673;SDS011;319;48.764;9.174;2023-07-29T04:49:04;1.20;;;1.20;;
673;SDS011;319;48.764;9.174;2023-07-29T04:51:31;1.47;;;1.47;;
673;SDS011;319;48.764;9.174;2023-07-29T04:53:58;1.70;;;1.70;;
673;SDS011;319;48.764;9.174;2023-07-29T04:56:26;1.80;;;1.80;;
673;SDS011;319;48.764;9.174;2023-07-29T04:58:52;1.40;;;1.40;;
673;SDS011;319;48.764;9.174;2023-07-29T05:01:20;1.60;;;1.60;;
673;SDS011;319;48.764;9.174;2023-07-29T05:03:48;1.90;;;1.90;;
673;SDS011;319;48.764;9.174;2023-07-29T05:06:15;2.90;;;2.80;;
673;SDS011;319;48.764;9.174;2023-07-29T05:08:42;1.30;;;1.30;;
673;SDS011;319;48.764;9.174;2023-07-29T05:11:09;1.70;;;1.70;;
673;SDS011;319;48.764;9.174;2023-07-29T05:13:36;1.30;;;1.30;;
673;SDS011;319;48.764;9.174;2023-07-29T05:16:03;1.93;;;1.93;;
673;SDS011;319;48.764;9.174;2023-07-29T05:18:30;1.53;;;1.53;;
673;SDS011;319;48.764;9.174;2023-07-29T05:20:58;1.00;;;1.00;;
673;SDS011;319;48.764;9.174;2023-07-29T05:23:31;0.90;;;0.90;;
673;SDS011;319;48.764;9.174;2023-07-29T05:25:58;1.00;;;1.00;;
673;SDS011;319;48.764;9.174;2023-07-29T05:28:25;0.90;;;0.90;;
673;SDS011;319;48.764;9.174;2023-07-29T05:30:52;1.00;;;1.00;;
673;SDS011;319;48.764;9.174;2023-07-29T05:33:19;1.00;;;1.00;;
673;SDS011;319;48.764;9.174;2023-07-29T05:35:46;1.00;;;1.00;;
673;SDS011;319;48.764;9.174;2023-07-29T05:38:14;1.00;;;1.00;;
673;SDS011;319;48.764;9.174;2023-07-29T05:40:41;1.00;;;1.00;;
673;SDS011;319;48.764;9.174;2023-07-29T05:43:08;0.90;;;0.90;;
673;SDS011;319;48.764;9.174;2023-07-29T05:45:35;0.90;;;0.90;;
673;SDS011;319;48.764;9.174;2023-07-29T05:48:02;0.90;;;0.90;;
673;SDS011;319;48.764;9.174;2023-07-29T05:50:30;1.00;;;1.00;;
673;SDS011;319;48.764;9.174;2023-07-29T05:52:57;1.00;;;1.00;;
673;SDS011;319;48.764;9.174;2023-07-29T05:55:25;0.93;;;0.93;;
673;SDS011;319;48.764;9.174;2023-07-29T05:57:52;1.00;;;1.00;;
673;SDS011;319;48.764;9.174;2023-07-29T06:00:20;1.00;;;1.00;;
673;SDS011;319;48.764;9.174;2023-07-29T06:02:46;1.10;;;1.10;;
673;SDS011;319;48.764;9.174;2023-07-29T06:05:13;1.20;;;1.20;;
673;SDS011;319;48.764;9.174;2023-07-29T06:07:41;1.07;;;1.07;;
673;SDS011;319;48.764;9.174;2023-07-29T06:10:09;2.10;;;2.10;;
673;SDS011;319;48.764;9.174;2023-07-29T06:12:38;1.00;;;1.00;;
673;SDS011;319;48.764;9.174;2023-07-29T06:15:05;1.73;;;1.73;;
673;SDS011;319;48.764;9.174;2023-07-29T06:17:32;1.00;;;1.00;;
673;SDS011;319;48.764;9.174;2023-07-29T06:20:00;0.90;;;0.90;;
673;SDS011;319;48.764;9.174;2023-07-29T06:22:27;0.90;;;0.90;;
673;SDS011;319;48.764;9.174;2023-07-29T06:24:54;0.90;;;0.90;;
673;SDS011;319;48.764;9.174;2023-07-29T06:27:21;0.90;;;0.90;;
673;SDS011;319;48.764;9.174;2023-07-29T06:29:51;1.83;;;1.83;;
673;SDS011;319;48.764;9.174;2023-07-29T06:32:18;2.47;;;2.47;;
673;SDS011;319;48.764;9.174;2023-07-29T06:34:44;1.10;;;1.10;;
673;SDS011;319;48.764;9.174;2023-07-29T06:37:11;3.67;;;3.57;;
673;SDS011;319;48.764;9.174;2023-07-29T06:39:38;1.07;;;1.07;;
673;SDS011;319;48.764;9.174;2023-07-29T06:42:05;2.47;;;2.47;;
673;SDS011;319;48.764;9.174;2023-07-29T06:44:32;3.27;;;3.17;;
673;SDS011;319;48.764;9.174;2023-07-29T06:47:00;2.23;;;2.23;;
673;SDS011;319;48.764;9.174;2023-07-29T06:49:27;1.20;;;1.20;;
673;SDS011;319;48.764;9.174;2023-07-29T06:51:54;1.70;;;1.70;;
673;SDS011;319;48.764;9.174;2023-07-29T06:54:23;3.10;;;3.00;;
673;SDS011;319;48.764;9.174;2023-07-29T06:56:51;2.27;;;2.27;;
673;SDS011;319;48.764;9.174;2023-07-29T06:59:18;4.43;;;4.33;;
673;SDS011;319;48.764;9.174;2023-07-29T07:01:45;3.33;;;3.23;;
673;SDS011;319;48.764;9.174;2023-07-29T07:04:13;3.90;;;3.80;;
673;SDS011;319;48.764;9.174;2023-07-29T07:06:40;4.00;;;3.90;;
673;SDS011;319;48.764;9.174;2023-07-29T07:09:07;2.17;;;2.17;;
673;SDS011;319;48.764;9.174;2023-07-29T07:11:34;3.17;;;3.07;;
673;SDS011;319;48.764;9.174;2023-07-29T07:14:01;2.57;;;2.53;;
673;SDS011;319;48.764;9.174;2023-07-29T07:16:28;1.10;;;1.10;;
673;SDS011;319;48.764;9.174;2023-07-29T07:18:56;1.70;;;1.70;;
673;SDS011;319;48.764;9.174;2023-07-29T07:21:24;5.87;;;5.77;;
673;SDS011;319;48.764;9.174;2023-07-29T07:23:51;3.03;;;2.93;;
673;SDS011;319;48.764;9.174;2023-07-29T07:26:18;1.20;;;1.20;;
673;SDS011;319;48.764;9.174;2023-07-29T07:28:45;1.20;;;1.20;;
673;SDS011;319;48.764;9.174;2023-07-29T07:31:12;1.10;;;1.10;;
673;SDS011;319;48.764;9.174;2023-07-29T07:33:39;1.10;;;1.10;;
673;SDS011;319;48.764;9.174;2023-07-29T07:36:06;1.20;;;1.20;;
673;SDS011;319;48.764;9.174;2023-07-29T07:38:34;1.10;;;1.10;;
673;SDS011;319;48.764;9.174;2023-07-29T07:41:01;1.10;;;1.10;;
673;SDS011;319;48.764;9.174;2023-07-29T07:43:28;1.10;;;1.10;;
673;SDS011;319;48.764;9.174;2023-07-29T07:45:59;1.00;;;1.00;;
673;SDS011;319;48.764;9.174;2023-07-29T07:48:26;1.10;;;1.10;;
673;SDS011;319;48.764;9.174;2023-07-29T07:50:53;1.00;;;1.00;;
673;SDS011;319;48.764;9.174;2023-07-29T07:53:20;1.10;;;1.10;;
673;SDS011;319;48.764;9.174;2023-07-29T07:55:49;1.00;;;1.00;;
673;SDS011;319;48.764;9.174;2023-07-29T07:58:15;1.00;;;1.00;;
673;SDS011;319;48.764;9.174;2023-07-29T08:00:42;0.90;;;0.90;;
673;SDS011;319;48.764;9.174;2023-07-29T08:03:09;1.10;;;1.10;;
673;SDS011;319;48.764;9.174;2023-07-29T08:05:36;1.10;;;1.10;;
673;SDS011;319;48.764;9.174;2023-07-29T08:08:03;1.10;;;1.10;;
673;SDS011;319;48.764;9.174;2023-07-29T08:10:32;1.10;;;1.10;;
673;SDS011;319;48.764;9.174;2023-07-29T08:13:04;1.10;;;1.10;;
673;SDS011;319;48.764;9.174;2023-07-29T08:15:32;1.20;;;1.20;;
673;SDS011;319;48.764;9.174;2023-07-29T08:18:09;1.20;;;1.20;;
673;SDS011;319;48.764;9.174;2023-07-29T08:20:39;1.10;;;1.10;;
673;SDS011;319;48.764;9.174;2023-07-29T08:23:06;4.87;;;4.77;;
673;SDS011;319;48.764;9.174;2023-07-29T08:25:33;4.97;;;4.87;;
673;SDS011;319;48.764;9.174;2023-07-29T08:28:00;0.90;;;0.90;;
673;SDS011;319;48.764;9.174;2023-07-29T08:30:29;0.90;;;0.90;;
673;SDS011;319;48.764;9.174;2023-07-29T08:32:55;0.90;;;0.90;;
673;SDS011;319;48.764;9.174;2023-07-29T08:35:23;2.43;;;2.43;;
673;SDS011;319;48.764;9.174;2023-07-29T08:37:53;1.00;;;1.00;;
673;SDS011;319;48.764;9.174;2023-07-29T08:40:22;0.90;;;0.90;;
673;SDS011;319;48.764;9.174;2023-07-29T08:42:55;1.00;;;1.00;;
673;SDS011;319;48.764;9.174;2023-07-29T08:45:24;1.10;;;1.10;;
673;SDS011;319;48.764;9.174;2023-07-29T08:47:54;1.07;;;1.07;;
673;SDS011;319;48.764;9.174;2023-07-29T08:50:24;1.00;;;1.00;;
673;SDS011;319;48.764;9.174;2023-07-29T08:52:51;0.90;;;0.90;;
673;SDS011;319;48.764;9.174;2023-07-29T08:55:20;1.37;;;1.37;;
673;SDS011;319;48.764;9.174;2023-07-29T08:57:49;1.30;;;1.30;;
673;SDS011;319;48.764;9.174;2023-07-29T09:00:17;1.90;;;1.90;;
673;SDS011;319;48.764;9.174;2023-07-29T09:02:46;13.70;;;13.30;;
673;SDS011;319;48.764;9.174;2023-07-29T09:05:14;13.70;;;13.30;;
673;SDS011;319;48.764;9.174;2023-07-29T09:07:41;12.03;;;11.73;;
673;SDS011;319;48.764;9.174;2023-07-29T09:10:10;9.97;;;9.67;;
673;SDS011;319;48.764;9.174;2023-07-29T09:12:40;2.60;;;2.60;;
673;SDS011;319;48.764;9.174;2023-07-29T09:15:08;12.97;;;12.67;;
673;SDS011;319;48.764;9.174;2023-07-29T09:17:38;13.10;;;12.80;;
673;SDS011;319;48.764;9.174;2023-07-29T09:20:11;12.70;;;12.40;;
673;SDS011;319;48.764;9.174;2023-07-29T09:22:40;13.37;;;13.00;;
673;SDS011;319;48.764;9.174;2023-07-29T09:25:10;11.57;;;11.27;;
673;SDS011;319;48.764;9.174;2023-07-29T09:27:42;13.40;;;13.00;;
673;SDS011;319;48.764;9.174;2023-07-29T09:30:11;10.20;;;9.90;;
673;SDS011;319;48.764;9.174;2023-07-29T09:32:45;11.67;;;11.37;;
673;SDS011;319;48.764;9.174;2023-07-29T09:35:13;8.97;;;8.77;;
673;SDS011;319;48.764;9.174;2023-07-29T09:37:41;11.90;;;11.60;;
673;SDS011;319;48.764;9.174;2023-07-29T09:40:13;13.50;;;13.10;;
673;SDS011;319;48.764;9.174;2023-07-29T09:42:49;12.37;;;12.07;;
673;SDS011;319;48.764;9.174;2023-07-29T09:45:20;10.23;;;9.93;;
673;SDS011;319;48.764;9.174;2023-07-29T09:47:48;12.80;;;12.50;;
673;SDS011;319;48.764;9.174;2023-07-29T09:50:22;10.40;;;10.10;;
673;SDS011;319;48.764;9.174;2023-07-29T09:52:50;10.87;;;10.57;;
673;SDS011;319;48.764;9.174;2023-07-29T09:55:18;12.20;;;11.90;;
673;SDS011;319;48.764;9.174;2023-07-29T09:57:47;12.30;;;12.00;;
673;SDS011;319;48.764;9.174;2023-07-29T10:00:14;11.93;;;11.63;;
673;SDS011;319;48.764;9.174;2023-07-29T10:02:41;12.60;;;12.30;;
673;SDS011;319;48.764;9.174;2023-07-29T10:05:09;9.50;;;9.30;;
673;SDS011;319;48.764;9.174;2023-07-29T10:07:38;12.33;;;12.03;;
673;SDS011;319;48.764;9.174;2023-07-29T10:10:06;13.50;;;13.10;;
673;SDS011;319;48.764;9.174;2023-07-29T10:12:39;13.67;;;13.27;;
673;SDS011;319;48.764;9.174;2023-07-29T10:15:08;12.40;;;12.10;;
673;SDS011;319;48.764;9.174;2023-07-29T10:17:35;13.90;;;13.50;;
673;SDS011;319;48.764;9.174;2023-07-29T10:20:04;14.50;;;14.10;;
673;SDS011;319;48.764;9.174;2023-07-29T10:22:33;14.37;;;13.97;;
673;SDS011;319;48.764;9.174;2023-07-29T10:25:05;0.90;;;0.90;;
673;SDS011;319;48.764;9.174;2023-07-29T10:27:35;0.90;;;0.90;;
673;SDS011;319;48.764;9.174;2023-07-29T10:30:09;12.43;;;12.13;;
673;SDS011;319;48.764;9.174;2023-07-29T10:32:38;0.90;;;0.90;;
673;SDS011;319;48.764;9.174;2023-07-29T10:35:10;0.80;;;0.80;;
673;SDS011;319;48.764;9.174;2023-07-29T10:37:37;1.57;;;1.57;;
673;SDS011;319;48.764;9.174;2023-07-29T10:40:08;0.90;;;0.90;;
673;SDS011;319;48.764;9.174;2023-07-29T10:42:37;1.83;;;1.83;;
673;SDS011;319;48.764;9.174;2023-07-29T10:48:39;1.10;;;1.10;;
673;SDS011;319;48.764;9.174;2023-07-29T10:51:24;0.83;;;0.83;;
673;SDS011;319;48.764;9.174;2023-07-29T10:53:55;11.63;;;11.33;;
673;SDS011;319;48.764;9.174;2023-07-29T10:56:29;12.23;;;11.93;;
673;SDS011;319;48.764;9.174;2023-07-29T10:58:58;12.23;;;11.93;;
673;SDS011;319;48.764;9.174;2023-07-29T11:01:28;11.40;;;11.10;;
673;SDS011;319;48.764;9.174;2023-07-29T11:09:56;11.10;;;10.80;;
673;SDS011;319;48.764;9.174;2023-07-29T11:12:44;12.20;;;11.90;;
673;SDS011;319;48.764;9.174;2023-07-29T11:15:19;11.73;;;11.43;;
673;SDS011;319;48.764;9.174;2023-07-29T11:17:56;11.83;;;11.53;;
673;SDS011;319;48.764;9.174;2023-07-29T11:20:26;10.67;;;10.37;;
673;SDS011;319;48.764;9.174;2023-07-29T11:22:56;11.87;;;11.57;;
673;SDS011;319;48.764;9.174;2023-07-29T11:25:26;10.67;;;10.37;;
673;SDS011;319;48.764;9.174;2023-07-29T11:30:33;8.53;;;8.33;;
673;SDS011;319;48.764;9.174;2023-07-29T11:33:00;10.00;;;9.70;;
673;SDS011;319;48.764;9.174;2023-07-29T11:35:27;10.67;;;10.37;;
673;SDS011;319;48.764;9.174;2023-07-29T11:37:54;10.90;;;10.60;;
673;SDS011;319;48.764;9.174;2023-07-29T11:40:23;6.07;;;5.97;;
673;SDS011;319;48.764;9.174;2023-07-29T11:42:53;7.20;;;7.00;;
673;SDS011;319;48.764;9.174;2023-07-29T11:45:23;10.23;;;9.93;;
673;SDS011;319;48.764;9.174;2023-07-29T11:47:52;11.07;;;10.77;;
673;SDS011;319;48.764;9.174;2023-07-29T11:50:20;11.77;;;11.47;;
673;SDS011;319;48.764;9.174;2023-07-29T11:52:47;12.63;;;12.33;;
673;SDS011;319;48.764;9.174;2023-07-29T11:55:22;12.50;;;12.20;;
673;SDS011;319;48.764;9.174;2023-07-29T11:58:11;12.67;;;12.37;;
673;SDS011;319;48.764;9.174;2023-07-29T12:00:50;0.90;;;0.90;;
673;SDS011;319;48.764;9.174;2023-07-29T12:03:18;0.87;;;0.87;;
673;SDS011;319;48.764;9.174;2023-07-29T12:05:45;4.20;;;4.10;;
673;SDS011;319;48.764;9.174;2023-07-29T12:18:29;13.90;;;13.50;;
673;SDS011;319;48.764;9.174;2023-07-29T12:20:57;12.90;;;12.60;;
673;SDS011;319;48.764;9.174;2023-07-29T12:23:28;13.27;;;12.90;;
673;SDS011;319;48.764;9.174;2023-07-29T12:25:59;12.40;;;12.10;;
673;SDS011;319;48.764;9.174;2023-07-29T12:31:58;12.80;;;12.50;;
673;SDS011;319;48.764;9.174;2023-07-29T12:34:47;12.90;;;12.60;;
673;SDS011;319;48.764;9.174;2023-07-29T12:38:05;11.60;;;11.30;;
673;SDS011;319;48.764;9.174;2023-07-29T12:40:39;11.10;;;10.80;;
673;SDS011;319;48.764;9.174;2023-07-29T12:43:08;10.90;;;10.60;;
673;SDS011;319;48.764;9.174;2023-07-29T12:45:35;12.20;;;11.90;;
673;SDS011;319;48.764;9.174;2023-07-29T12:48:07;12.33;;;12.03;;
673;SDS011;319;48.764;9.174;2023-07-29T12:50:43;11.93;;;11.63;;
673;SDS011;319;48.764;9.174;2023-07-29T12:53:11;11.93;;;11.63;;
673;SDS011;319;48.764;9.174;2023-07-29T12:55:39;9.90;;;9.67;;
673;SDS011;319;48.764;9.174;2023-07-29T12:58:06;8.17;;;7.97;;
673;SDS011;319;48.764;9.174;2023-07-29T13:00:33;11.47;;;11.17;;
673;SDS011;319;48.764;9.174;2023-07-29T13:03:00;10.77;;;10.47;;
673;SDS011;319;48.764;9.174;2023-07-29T13:05:32;11.40;;;11.10;;
673;SDS011;319;48.764;9.174;2023-07-29T13:08:04;12.30;;;12.00;;
673;SDS011;319;48.764;9.174;2023-07-29T13:10:32;10.87;;;10.57;;
673;SDS011;319;48.764;9.174;2023-07-29T13:13:01;10.97;;;10.67;;
673;SDS011;319;48.764;9.174;2023-07-29T13:15:28;11.67;;;11.37;;
673;SDS011;319;48.764;9.174;2023-07-29T13:17:55;11.20;;;10.90;;
673;SDS011;319;48.764;9.174;2023-07-29T13:21:04;12.30;;;12.00;;
673;SDS011;319;48.764;9.174;2023-07-29T13:23:31;12.13;;;11.83;;
673;SDS011;319;48.764;9.174;2023-07-29T13:25:58;13.43;;;13.03;;
673;SDS011;319;48.764;9.174;2023-07-29T13:28:25;11.57;;;11.27;;
673;SDS011;319;48.764;9.174;2023-07-29T13:30:52;10.70;;;10.40;;
673;SDS011;319;48.764;9.174;2023-07-29T13:33:19;10.07;;;9.80;;
673;SDS011;319;48.764;9.174;2023-07-29T13:35:46;12.87;;;12.57;;
673;SDS011;319;48.764;9.174;2023-07-29T13:38:14;12.60;;;12.30;;
673;SDS011;319;48.764;9.174;2023-07-29T13:40:41;13.07;;;12.77;;
673;SDS011;319;48.764;9.174;2023-07-29T13:43:08;10.63;;;10.33;;
673;SDS011;319;48.764;9.174;2023-07-29T13:45:35;12.80;;;12.50;;
673;SDS011;319;48.764;9.174;2023-07-29T13:48:02;13.47;;;13.10;;
673;SDS011;319;48.764;9.174;2023-07-29T13:50:29;12.33;;;12.03;;
673;SDS011;319;48.764;9.174;2023-07-29T13:52:56;11.07;;;10.77;;
673;SDS011;319;48.764;9.174;2023-07-29T13:55:25;13.60;;;13.20;;
673;SDS011;319;48.764;9.174;2023-07-29T13:57:52;12.40;;;12.10;;
673;SDS011;319;48.764;9.174;2023-07-29T14:00:20;14.30;;;13.90;;
673;SDS011;319;48.764;9.174;2023-07-29T14:02:47;13.93;;;13.53;;
673;SDS011;319;48.764;9.174;2023-07-29T14:05:13;13.70;;;13.30;;
673;SDS011;319;48.764;9.174;2023-07-29T14:07:40;12.03;;;11.73;;
673;SDS011;319;48.764;9.174;2023-07-29T14:10:07;13.70;;;13.30;;
673;SDS011;319;48.764;9.174;2023-07-29T14:12:36;13.50;;;13.10;;
673;SDS011;319;48.764;9.174;2023-07-29T14:15:03;12.40;;;12.10;;
673;SDS011;319;48.764;9.174;2023-07-29T14:17:31;11.07;;;10.77;;
673;SDS011;319;48.764;9.174;2023-07-29T14:19:58;13.10;;;12.80;;
673;SDS011;319;48.764;9.174;2023-07-29T14:22:25;12.50;;;12.20;;
673;SDS011;319;48.764;9.174;2023-07-29T14:24:52;12.87;;;12.57;;
673;SDS011;319;48.764;9.174;2023-07-29T14:27:19;9.63;;;9.43;;
673;SDS011;319;48.764;9.174;2023-07-29T14:29:57;10.73;;;10.43;;
673;SDS011;319;48.764;9.174;2023-07-29T14:32:24;12.83;;;12.53;;
673;SDS011;319;48.764;9.174;2023-07-29T14:34:54;12.37;;;12.07;;
673;SDS011;319;48.764;9.174;2023-07-29T14:37:21;12.60;;;12.30;;
673;SDS011;319;48.764;9.174;2023-07-29T14:39:48;12.60;;;12.30;;
673;SDS011;319;48.764;9.174;2023-07-29T14:42:17;13.30;;;13.00;;
673;SDS011;319;48.764;9.174;2023-07-29T14:45:40;15.17;;;14.77;;
673;SDS011;319;48.764;9.174;2023-07-29T14:48:13;10.60;;;10.30;;
673;SDS011;319;48.764;9.174;2023-07-29T14:50:40;10.77;;;10.47;;
673;SDS011;319;48.764;9.174;2023-07-29T14:53:11;10.50;;;10.20;;
673;SDS011;319;48.764;9.174;2023-07-29T14:55:38;9.27;;;9.07;;
673;SDS011;319;48.764;9.174;2023-07-29T15:01:37;14.00;;;13.60;;
673;SDS011;319;48.764;9.174;2023-07-29T15:04:04;10.67;;;10.37;;
673;SDS011;319;48.764;9.174;2023-07-29T15:06:31;14.00;;;13.60;;
673;SDS011;319;48.764;9.174;2023-07-29T15:08:58;11.30;;;11.00;;
673;SDS011;319;48.764;9.174;2023-07-29T15:11:25;11.43;;;11.13;;
673;SDS011;319;48.764;9.174;2023-07-29T15:13:52;11.13;;;10.83;;
673;SDS011;319;48.764;9.174;2023-07-29T15:16:22;12.60;;;12.30;;
673;SDS011;319;48.764;9.174;2023-07-29T15:18:51;10.50;;;10.20;;
673;SDS011;319;48.764;9.174;2023-07-29T15:21:18;12.50;;;12.20;;
673;SDS011;319;48.764;9.174;2023-07-29T15:23:45;10.30;;;10.00;;
673;SDS011;319;48.764;9.174;2023-07-29T15:26:12;13.93;;;13.53;;
673;SDS011;319;48.764;9.174;2023-07-29T15:31:37;12.53;;;12.23;;
673;SDS011;319;48.764;9.174;2023-07-29T15:34:09;12.07;;;11.77;;
673;SDS011;319;48.764;9.174;2023-07-29T15:36:36;12.90;;;12.60;;
673;SDS011;319;48.764;9.174;2023-07-29T15:39:14;10.53;;;10.23;;
673;SDS011;319;48.764;9.174;2023-07-29T15:41:41;12.60;;;12.30;;
673;SDS011;319;48.764;9.174;2023-07-29T15:44:08;9.80;;;9.60;;
673;SDS011;319;48.764;9.174;2023-07-29T15:46:35;12.00;;;11.70;;
673;SDS011;319;48.764;9.174;2023-07-29T15:49:05;8.30;;;8.10;;
673;SDS011;319;48.764;9.174;2023-07-29T15:51:35;11.70;;;11.40;;
673;SDS011;319;48.764;9.174;2023-07-29T15:54:02;11.60;;;11.30;;
673;SDS011;319;48.764;9.174;2023-07-29T15:56:33;12.60;;;12.30;;
673;SDS011;319;48.764;9.174;2023-07-29T15:59:01;11.60;;;11.30;;
673;SDS011;319;48.764;9.174;2023-07-29T16:01:28;11.50;;;11.20;;
673;SDS011;319;48.764;9.174;2023-07-29T16:03:55;12.17;;;11.87;;
673;SDS011;319;48.764;9.174;2023-07-29T16:08:52;8.90;;;8.70;;
673;SDS011;319;48.764;9.174;2023-07-29T16:11:19;12.03;;;11.73;;
673;SDS011;319;48.764;9.174;2023-07-29T16:13:46;11.60;;;11.30;;
673;SDS011;319;48.764;9.174;2023-07-29T16:16:14;12.77;;;12.47;;
673;SDS011;319;48.764;9.174;2023-07-29T16:18:40;9.37;;;9.17;;
673;SDS011;319;48.764;9.174;2023-07-29T16:21:07;12.40;;;12.10;;